DEN weather

Public forecast

Using degrees Fahrenheit for public forecast. Weather courtesy of forecast.io.

Current aviation weather report (METAR) for Denver International Airport

Retrieved 2020/08/10 09:53 UTC (31 minutes ago):

KDEN 100953Z 33012KT 10SM SCT170 21/04 A3010 RMK AO2 SLP094 T02110039

Aviation forecast (TAF) for Denver International Airport

Retrieved 2020/08/10 06:24 UTC (4 hours ago):

TAF KDEN 100522Z 1006/1112 04008KT P6SM SCT160 BKN200 FM101000 33008KT P6SM FEW160 SCT200 FM101700 08010KT P6SM SCT140 SCT200 FM102200 12012KT P6SM SCT090 BKN140 FM110100 14014KT P6SM SCT090 BKN140 FM110400 20014KT P6SM FEW090 SCT140